sensor_id;sensor_type;location;lat;lon;timestamp;P1;durP1;ratioP1;P2;durP2;ratioP2
71312;SDS011;59104;44.738;20.612;2022-09-09T00:00:50;15.75;;;9.07;;
71312;SDS011;59104;44.738;20.612;2022-09-09T00:03:22;13.68;;;9.07;;
71312;SDS011;59104;44.738;20.612;2022-09-09T00:08:22;13.27;;;7.78;;
71312;SDS011;59104;44.738;20.612;2022-09-09T00:10:58;12.57;;;8.05;;
71312;SDS011;59104;44.738;20.612;2022-09-09T00:13:30;11.77;;;7.55;;
71312;SDS011;59104;44.738;20.612;2022-09-09T00:23:29;11.10;;;7.82;;
71312;SDS011;59104;44.738;20.612;2022-09-09T00:28:24;11.25;;;7.47;;
71312;SDS011;59104;44.738;20.612;2022-09-09T00:30:50;12.60;;;8.10;;
71312;SDS011;59104;44.738;20.612;2022-09-09T00:33:17;13.75;;;8.77;;
71312;SDS011;59104;44.738;20.612;2022-09-09T00:35:44;15.07;;;8.35;;
71312;SDS011;59104;44.738;20.612;2022-09-09T00:40:39;13.27;;;8.60;;
71312;SDS011;59104;44.738;20.612;2022-09-09T00:48:00;15.82;;;8.68;;
71312;SDS011;59104;44.738;20.612;2022-09-09T00:57:52;13.77;;;8.07;;
71312;SDS011;59104;44.738;20.612;2022-09-09T01:00:19;11.95;;;7.60;;
71312;SDS011;59104;44.738;20.612;2022-09-09T01:05:33;12.40;;;7.47;;
71312;SDS011;59104;44.738;20.612;2022-09-09T01:08:00;11.10;;;7.57;;
71312;SDS011;59104;44.738;20.612;2022-09-09T01:11:16;13.07;;;7.65;;
71312;SDS011;59104;44.738;20.612;2022-09-09T01:13:15;11.73;;;7.55;;
71312;SDS011;59104;44.738;20.612;2022-09-09T01:15:42;13.50;;;7.53;;
71312;SDS011;59104;44.738;20.612;2022-09-09T01:18:10;11.95;;;7.80;;
71312;SDS011;59104;44.738;20.612;2022-09-09T01:28:47;12.48;;;7.43;;
71312;SDS011;59104;44.738;20.612;2022-09-09T01:31:17;15.70;;;8.82;;
71312;SDS011;59104;44.738;20.612;2022-09-09T01:33:45;14.38;;;8.80;;
71312;SDS011;59104;44.738;20.612;2022-09-09T01:38:47;18.20;;;9.80;;
71312;SDS011;59104;44.738;20.612;2022-09-09T01:41:14;15.95;;;8.55;;
71312;SDS011;59104;44.738;20.612;2022-09-09T01:43:48;16.63;;;9.43;;
71312;SDS011;59104;44.738;20.612;2022-09-09T01:46:14;14.75;;;8.77;;
71312;SDS011;59104;44.738;20.612;2022-09-09T01:48:41;17.52;;;9.02;;
71312;SDS011;59104;44.738;20.612;2022-09-09T01:51:08;14.05;;;9.00;;
71312;SDS011;59104;44.738;20.612;2022-09-09T01:53:35;13.77;;;8.18;;
71312;SDS011;59104;44.738;20.612;2022-09-09T01:58:42;14.25;;;8.55;;
71312;SDS011;59104;44.738;20.612;2022-09-09T02:01:28;19.20;;;9.07;;
71312;SDS011;59104;44.738;20.612;2022-09-09T02:03:59;12.32;;;7.88;;
71312;SDS011;59104;44.738;20.612;2022-09-09T02:06:30;13.95;;;7.75;;
71312;SDS011;59104;44.738;20.612;2022-09-09T02:09:05;16.08;;;7.20;;
71312;SDS011;59104;44.738;20.612;2022-09-09T02:11:32;13.23;;;7.50;;
71312;SDS011;59104;44.738;20.612;2022-09-09T02:14:14;11.93;;;7.15;;
71312;SDS011;59104;44.738;20.612;2022-09-09T02:16:46;12.45;;;7.82;;
71312;SDS011;59104;44.738;20.612;2022-09-09T02:19:32;15.20;;;7.15;;
71312;SDS011;59104;44.738;20.612;2022-09-09T02:22:24;13.52;;;7.45;;
71312;SDS011;59104;44.738;20.612;2022-09-09T02:24:51;12.95;;;6.63;;
71312;SDS011;59104;44.738;20.612;2022-09-09T02:27:24;14.73;;;7.40;;
71312;SDS011;59104;44.738;20.612;2022-09-09T02:29:50;15.13;;;7.80;;
71312;SDS011;59104;44.738;20.612;2022-09-09T02:32:22;12.65;;;7.55;;
71312;SDS011;59104;44.738;20.612;2022-09-09T02:34:51;12.50;;;8.00;;
71312;SDS011;59104;44.738;20.612;2022-09-09T02:37:20;10.93;;;7.68;;
71312;SDS011;59104;44.738;20.612;2022-09-09T02:39:50;12.35;;;8.15;;
71312;SDS011;59104;44.738;20.612;2022-09-09T02:42:19;11.77;;;7.50;;
71312;SDS011;59104;44.738;20.612;2022-09-09T02:44:44;13.63;;;7.90;;
71312;SDS011;59104;44.738;20.612;2022-09-09T02:52:09;11.15;;;6.57;;
71312;SDS011;59104;44.738;20.612;2022-09-09T02:54:40;10.15;;;6.63;;
71312;SDS011;59104;44.738;20.612;2022-09-09T02:57:17;9.52;;;5.88;;
71312;SDS011;59104;44.738;20.612;2022-09-09T02:59:47;11.60;;;6.85;;
71312;SDS011;59104;44.738;20.612;2022-09-09T03:02:14;10.77;;;6.93;;
71312;SDS011;59104;44.738;20.612;2022-09-09T03:04:41;12.50;;;6.63;;
71312;SDS011;59104;44.738;20.612;2022-09-09T03:07:11;12.80;;;6.95;;
71312;SDS011;59104;44.738;20.612;2022-09-09T03:09:37;9.10;;;6.05;;
71312;SDS011;59104;44.738;20.612;2022-09-09T03:12:03;9.60;;;6.15;;
71312;SDS011;59104;44.738;20.612;2022-09-09T03:14:33;10.43;;;6.35;;
71312;SDS011;59104;44.738;20.612;2022-09-09T03:16:59;10.45;;;5.63;;
71312;SDS011;59104;44.738;20.612;2022-09-09T03:19:28;7.53;;;5.18;;
71312;SDS011;59104;44.738;20.612;2022-09-09T03:21:55;12.02;;;6.50;;
71312;SDS011;59104;44.738;20.612;2022-09-09T03:24:21;9.63;;;5.72;;
71312;SDS011;59104;44.738;20.612;2022-09-09T03:26:48;11.10;;;6.85;;
71312;SDS011;59104;44.738;20.612;2022-09-09T03:29:15;8.57;;;5.32;;
71312;SDS011;59104;44.738;20.612;2022-09-09T03:31:42;9.48;;;5.70;;
71312;SDS011;59104;44.738;20.612;2022-09-09T03:34:08;8.57;;;5.68;;
71312;SDS011;59104;44.738;20.612;2022-09-09T03:36:34;7.57;;;4.50;;
71312;SDS011;59104;44.738;20.612;2022-09-09T03:39:00;5.22;;;4.25;;
71312;SDS011;59104;44.738;20.612;2022-09-09T03:41:29;5.65;;;3.97;;
71312;SDS011;59104;44.738;20.612;2022-09-09T03:43:55;6.07;;;4.00;;
71312;SDS011;59104;44.738;20.612;2022-09-09T03:46:24;9.25;;;4.30;;
71312;SDS011;59104;44.738;20.612;2022-09-09T03:48:50;6.28;;;4.45;;
71312;SDS011;59104;44.738;20.612;2022-09-09T03:51:17;9.43;;;5.70;;
71312;SDS011;59104;44.738;20.612;2022-09-09T03:53:43;8.18;;;5.25;;
71312;SDS011;59104;44.738;20.612;2022-09-09T03:56:08;8.95;;;5.47;;
71312;SDS011;59104;44.738;20.612;2022-09-09T03:58:34;9.40;;;5.95;;
71312;SDS011;59104;44.738;20.612;2022-09-09T04:01:06;10.07;;;6.50;;
71312;SDS011;59104;44.738;20.612;2022-09-09T04:03:33;10.43;;;6.72;;
71312;SDS011;59104;44.738;20.612;2022-09-09T04:05:59;12.13;;;6.60;;
71312;SDS011;59104;44.738;20.612;2022-09-09T04:08:27;10.10;;;6.75;;
71312;SDS011;59104;44.738;20.612;2022-09-09T04:10:53;12.23;;;6.78;;
71312;SDS011;59104;44.738;20.612;2022-09-09T04:13:21;12.68;;;7.10;;
71312;SDS011;59104;44.738;20.612;2022-09-09T04:15:50;11.70;;;6.72;;
71312;SDS011;59104;44.738;20.612;2022-09-09T04:18:16;10.43;;;6.63;;
71312;SDS011;59104;44.738;20.612;2022-09-09T04:20:41;11.25;;;6.43;;
71312;SDS011;59104;44.738;20.612;2022-09-09T04:23:09;10.20;;;5.78;;
71312;SDS011;59104;44.738;20.612;2022-09-09T04:25:34;10.00;;;5.82;;
71312;SDS011;59104;44.738;20.612;2022-09-09T04:28:00;10.23;;;5.65;;
71312;SDS011;59104;44.738;20.612;2022-09-09T04:30:25;13.35;;;7.55;;
71312;SDS011;59104;44.738;20.612;2022-09-09T04:32:52;17.17;;;7.88;;
71312;SDS011;59104;44.738;20.612;2022-09-09T04:35:18;16.00;;;7.43;;
71312;SDS011;59104;44.738;20.612;2022-09-09T04:37:46;18.70;;;7.93;;
71312;SDS011;59104;44.738;20.612;2022-09-09T04:40:11;13.52;;;7.32;;
71312;SDS011;59104;44.738;20.612;2022-09-09T04:42:37;13.52;;;6.88;;
71312;SDS011;59104;44.738;20.612;2022-09-09T04:45:03;16.10;;;6.93;;
71312;SDS011;59104;44.738;20.612;2022-09-09T04:47:29;13.70;;;7.85;;
71312;SDS011;59104;44.738;20.612;2022-09-09T04:49:54;17.15;;;8.43;;
71312;SDS011;59104;44.738;20.612;2022-09-09T04:52:20;16.27;;;8.95;;
71312;SDS011;59104;44.738;20.612;2022-09-09T04:54:46;17.00;;;8.63;;
71312;SDS011;59104;44.738;20.612;2022-09-09T04:57:12;14.75;;;7.45;;
71312;SDS011;59104;44.738;20.612;2022-09-09T04:59:38;13.10;;;7.82;;
71312;SDS011;59104;44.738;20.612;2022-09-09T05:02:04;17.25;;;8.32;;
71312;SDS011;59104;44.738;20.612;2022-09-09T05:04:30;19.13;;;9.65;;
71312;SDS011;59104;44.738;20.612;2022-09-09T05:06:55;21.13;;;9.82;;
71312;SDS011;59104;44.738;20.612;2022-09-09T05:09:22;18.45;;;11.10;;
71312;SDS011;59104;44.738;20.612;2022-09-09T05:11:47;19.15;;;10.20;;
71312;SDS011;59104;44.738;20.612;2022-09-09T05:14:28;22.40;;;9.75;;
71312;SDS011;59104;44.738;20.612;2022-09-09T05:16:54;20.35;;;10.57;;
71312;SDS011;59104;44.738;20.612;2022-09-09T05:19:22;19.08;;;9.98;;
71312;SDS011;59104;44.738;20.612;2022-09-09T05:21:48;21.95;;;10.00;;
71312;SDS011;59104;44.738;20.612;2022-09-09T05:24:16;23.45;;;10.02;;
71312;SDS011;59104;44.738;20.612;2022-09-09T05:26:43;17.95;;;9.63;;
71312;SDS011;59104;44.738;20.612;2022-09-09T05:29:09;16.80;;;9.65;;
71312;SDS011;59104;44.738;20.612;2022-09-09T05:31:35;15.98;;;8.13;;
71312;SDS011;59104;44.738;20.612;2022-09-09T05:34:05;16.13;;;8.18;;
71312;SDS011;59104;44.738;20.612;2022-09-09T05:36:30;12.25;;;7.93;;
71312;SDS011;59104;44.738;20.612;2022-09-09T05:38:56;13.25;;;8.10;;
71312;SDS011;59104;44.738;20.612;2022-09-09T05:41:24;13.52;;;7.82;;
71312;SDS011;59104;44.738;20.612;2022-09-09T05:43:52;16.33;;;8.45;;
71312;SDS011;59104;44.738;20.612;2022-09-09T05:46:19;15.68;;;7.57;;
71312;SDS011;59104;44.738;20.612;2022-09-09T05:48:47;16.60;;;8.85;;
71312;SDS011;59104;44.738;20.612;2022-09-09T05:51:15;17.35;;;9.38;;
71312;SDS011;59104;44.738;20.612;2022-09-09T05:53:41;14.00;;;8.40;;
71312;SDS011;59104;44.738;20.612;2022-09-09T05:56:09;20.63;;;9.10;;
71312;SDS011;59104;44.738;20.612;2022-09-09T05:58:39;13.45;;;8.15;;
71312;SDS011;59104;44.738;20.612;2022-09-09T06:03:33;16.40;;;8.80;;
71312;SDS011;59104;44.738;20.612;2022-09-09T06:05:59;15.50;;;8.73;;
71312;SDS011;59104;44.738;20.612;2022-09-09T06:08:26;12.32;;;8.15;;
71312;SDS011;59104;44.738;20.612;2022-09-09T06:10:51;17.20;;;8.60;;
71312;SDS011;59104;44.738;20.612;2022-09-09T06:13:17;14.43;;;9.25;;
71312;SDS011;59104;44.738;20.612;2022-09-09T06:15:49;17.20;;;9.00;;
71312;SDS011;59104;44.738;20.612;2022-09-09T06:18:15;19.60;;;9.98;;
71312;SDS011;59104;44.738;20.612;2022-09-09T06:20:43;14.90;;;9.23;;
71312;SDS011;59104;44.738;20.612;2022-09-09T06:23:08;13.77;;;9.35;;
71312;SDS011;59104;44.738;20.612;2022-09-09T06:25:41;14.32;;;8.82;;
71312;SDS011;59104;44.738;20.612;2022-09-09T06:28:07;16.90;;;9.40;;
71312;SDS011;59104;44.738;20.612;2022-09-09T06:30:33;20.75;;;10.02;;
71312;SDS011;59104;44.738;20.612;2022-09-09T06:32:58;19.48;;;9.98;;
71312;SDS011;59104;44.738;20.612;2022-09-09T06:35:24;22.52;;;11.98;;
71312;SDS011;59104;44.738;20.612;2022-09-09T06:37:49;23.02;;;12.60;;
71312;SDS011;59104;44.738;20.612;2022-09-09T06:40:17;21.80;;;11.80;;
71312;SDS011;59104;44.738;20.612;2022-09-09T06:42:42;20.73;;;11.13;;
71312;SDS011;59104;44.738;20.612;2022-09-09T06:45:34;20.75;;;10.27;;
71312;SDS011;59104;44.738;20.612;2022-09-09T06:48:02;23.25;;;11.93;;
71312;SDS011;59104;44.738;20.612;2022-09-09T06:50:28;16.73;;;10.10;;
71312;SDS011;59104;44.738;20.612;2022-09-09T06:52:53;19.77;;;10.90;;
71312;SDS011;59104;44.738;20.612;2022-09-09T06:55:19;15.45;;;9.30;;
71312;SDS011;59104;44.738;20.612;2022-09-09T06:57:46;18.17;;;9.88;;
71312;SDS011;59104;44.738;20.612;2022-09-09T07:00:16;16.40;;;9.60;;
71312;SDS011;59104;44.738;20.612;2022-09-09T07:02:42;15.30;;;9.85;;
71312;SDS011;59104;44.738;20.612;2022-09-09T07:05:08;19.33;;;9.48;;
71312;SDS011;59104;44.738;20.612;2022-09-09T07:07:34;16.25;;;9.88;;
71312;SDS011;59104;44.738;20.612;2022-09-09T07:09:59;19.27;;;10.07;;
71312;SDS011;59104;44.738;20.612;2022-09-09T07:12:25;17.00;;;10.10;;
71312;SDS011;59104;44.738;20.612;2022-09-09T07:14:56;17.80;;;9.77;;
71312;SDS011;59104;44.738;20.612;2022-09-09T07:17:21;16.55;;;9.30;;
71312;SDS011;59104;44.738;20.612;2022-09-09T07:19:47;19.02;;;10.20;;
71312;SDS011;59104;44.738;20.612;2022-09-09T07:22:14;17.08;;;10.05;;
71312;SDS011;59104;44.738;20.612;2022-09-09T07:24:40;16.88;;;8.55;;
71312;SDS011;59104;44.738;20.612;2022-09-09T07:27:06;18.02;;;9.43;;
71312;SDS011;59104;44.738;20.612;2022-09-09T07:29:32;17.83;;;8.55;;
71312;SDS011;59104;44.738;20.612;2022-09-09T07:31:58;18.55;;;9.70;;
71312;SDS011;59104;44.738;20.612;2022-09-09T07:34:28;18.67;;;9.70;;
71312;SDS011;59104;44.738;20.612;2022-09-09T07:36:55;18.13;;;10.02;;
71312;SDS011;59104;44.738;20.612;2022-09-09T07:39:22;19.88;;;10.27;;
71312;SDS011;59104;44.738;20.612;2022-09-09T07:41:51;19.27;;;10.38;;
71312;SDS011;59104;44.738;20.612;2022-09-09T07:44:21;19.35;;;9.95;;
71312;SDS011;59104;44.738;20.612;2022-09-09T07:46:50;17.58;;;9.50;;
71312;SDS011;59104;44.738;20.612;2022-09-09T07:49:19;17.83;;;9.63;;
71312;SDS011;59104;44.738;20.612;2022-09-09T07:51:45;19.05;;;9.20;;
71312;SDS011;59104;44.738;20.612;2022-09-09T07:54:13;16.83;;;8.93;;
71312;SDS011;59104;44.738;20.612;2022-09-09T07:56:42;15.20;;;9.25;;
71312;SDS011;59104;44.738;20.612;2022-09-09T07:59:09;15.68;;;9.25;;
71312;SDS011;59104;44.738;20.612;2022-09-09T08:01:40;19.30;;;10.65;;
71312;SDS011;59104;44.738;20.612;2022-09-09T08:04:11;18.08;;;10.23;;
71312;SDS011;59104;44.738;20.612;2022-09-09T08:06:49;18.85;;;10.38;;
71312;SDS011;59104;44.738;20.612;2022-09-09T08:09:16;17.20;;;9.30;;
71312;SDS011;59104;44.738;20.612;2022-09-09T08:11:43;20.60;;;10.85;;
71312;SDS011;59104;44.738;20.612;2022-09-09T08:14:10;16.90;;;8.77;;
71312;SDS011;59104;44.738;20.612;2022-09-09T08:16:37;20.95;;;10.18;;
71312;SDS011;59104;44.738;20.612;2022-09-09T08:19:04;17.73;;;9.00;;
71312;SDS011;59104;44.738;20.612;2022-09-09T08:21:31;18.10;;;9.38;;
71312;SDS011;59104;44.738;20.612;2022-09-09T08:23:59;19.23;;;8.95;;
71312;SDS011;59104;44.738;20.612;2022-09-09T08:26:26;11.43;;;7.75;;
71312;SDS011;59104;44.738;20.612;2022-09-09T08:28:54;15.30;;;8.68;;
71312;SDS011;59104;44.738;20.612;2022-09-09T08:31:21;18.58;;;9.40;;
71312;SDS011;59104;44.738;20.612;2022-09-09T08:33:47;17.65;;;9.15;;
71312;SDS011;59104;44.738;20.612;2022-09-09T08:36:14;16.10;;;9.18;;
71312;SDS011;59104;44.738;20.612;2022-09-09T08:38:41;18.25;;;8.95;;
71312;SDS011;59104;44.738;20.612;2022-09-09T08:41:12;20.77;;;9.80;;
71312;SDS011;59104;44.738;20.612;2022-09-09T08:46:09;13.55;;;8.05;;
71312;SDS011;59104;44.738;20.612;2022-09-09T08:48:43;17.52;;;8.63;;
71312;SDS011;59104;44.738;20.612;2022-09-09T08:51:10;12.18;;;7.38;;
71312;SDS011;59104;44.738;20.612;2022-09-09T08:53:39;15.70;;;8.73;;
71312;SDS011;59104;44.738;20.612;2022-09-09T08:56:24;10.75;;;7.45;;
71312;SDS011;59104;44.738;20.612;2022-09-09T08:58:55;11.98;;;7.53;;
71312;SDS011;59104;44.738;20.612;2022-09-09T09:09:10;10.30;;;6.57;;
71312;SDS011;59104;44.738;20.612;2022-09-09T09:11:47;12.65;;;7.45;;
71312;SDS011;59104;44.738;20.612;2022-09-09T09:16:42;14.65;;;7.97;;
71312;SDS011;59104;44.738;20.612;2022-09-09T09:19:13;13.70;;;8.68;;
71312;SDS011;59104;44.738;20.612;2022-09-09T09:27:07;9.02;;;6.70;;
71312;SDS011;59104;44.738;20.612;2022-09-09T09:29:36;11.23;;;6.53;;
71312;SDS011;59104;44.738;20.612;2022-09-09T09:32:02;15.45;;;7.13;;
71312;SDS011;59104;44.738;20.612;2022-09-09T09:34:28;9.88;;;6.85;;
71312;SDS011;59104;44.738;20.612;2022-09-09T09:36:58;11.25;;;7.65;;
71312;SDS011;59104;44.738;20.612;2022-09-09T09:39:30;11.05;;;6.70;;
71312;SDS011;59104;44.738;20.612;2022-09-09T09:41:58;12.40;;;7.45;;
71312;SDS011;59104;44.738;20.612;2022-09-09T09:44:33;13.80;;;8.30;;
71312;SDS011;59104;44.738;20.612;2022-09-09T09:47:12;11.88;;;7.47;;
71312;SDS011;59104;44.738;20.612;2022-09-09T09:49:39;11.00;;;6.43;;
71312;SDS011;59104;44.738;20.612;2022-09-09T09:52:05;18.83;;;7.80;;
71312;SDS011;59104;44.738;20.612;2022-09-09T09:54:33;10.65;;;7.43;;
71312;SDS011;59104;44.738;20.612;2022-09-09T09:57:08;10.48;;;6.72;;
71312;SDS011;59104;44.738;20.612;2022-09-09T09:59:35;11.40;;;7.50;;
71312;SDS011;59104;44.738;20.612;2022-09-09T10:04:45;10.43;;;7.57;;
71312;SDS011;59104;44.738;20.612;2022-09-09T10:07:12;10.35;;;6.97;;
71312;SDS011;59104;44.738;20.612;2022-09-09T10:09:37;11.48;;;6.60;;
71312;SDS011;59104;44.738;20.612;2022-09-09T10:14:40;11.00;;;6.10;;
71312;SDS011;59104;44.738;20.612;2022-09-09T10:19:40;9.93;;;5.80;;
71312;SDS011;59104;44.738;20.612;2022-09-09T10:24:40;9.85;;;6.50;;
71312;SDS011;59104;44.738;20.612;2022-09-09T10:37:46;7.30;;;5.10;;
71312;SDS011;59104;44.738;20.612;2022-09-09T10:42:44;10.27;;;6.97;;
71312;SDS011;59104;44.738;20.612;2022-09-09T10:45:28;8.88;;;5.97;;
71312;SDS011;59104;44.738;20.612;2022-09-09T10:48:21;9.48;;;5.43;;
71312;SDS011;59104;44.738;20.612;2022-09-09T10:56:12;7.75;;;6.15;;
71312;SDS011;59104;44.738;20.612;2022-09-09T11:04:01;11.38;;;6.07;;
71312;SDS011;59104;44.738;20.612;2022-09-09T11:06:30;10.93;;;5.82;;
71312;SDS011;59104;44.738;20.612;2022-09-09T11:08:58;8.55;;;5.50;;
71312;SDS011;59104;44.738;20.612;2022-09-09T11:11:26;7.03;;;5.03;;
71312;SDS011;59104;44.738;20.612;2022-09-09T11:19:36;7.05;;;5.07;;
71312;SDS011;59104;44.738;20.612;2022-09-09T11:24:41;6.85;;;4.80;;
71312;SDS011;59104;44.738;20.612;2022-09-09T11:27:10;9.05;;;4.97;;
71312;SDS011;59104;44.738;20.612;2022-09-09T11:29:52;5.55;;;4.45;;
71312;SDS011;59104;44.738;20.612;2022-09-09T11:42:39;7.30;;;5.03;;
71312;SDS011;59104;44.738;20.612;2022-09-09T11:45:08;6.50;;;4.55;;
71312;SDS011;59104;44.738;20.612;2022-09-09T11:47:34;8.43;;;5.10;;
71312;SDS011;59104;44.738;20.612;2022-09-09T11:52:41;6.30;;;4.38;;
71312;SDS011;59104;44.738;20.612;2022-09-09T11:57:48;4.72;;;3.55;;
71312;SDS011;59104;44.738;20.612;2022-09-09T12:00:38;5.55;;;3.70;;
71312;SDS011;59104;44.738;20.612;2022-09-09T12:03:05;6.22;;;4.40;;
71312;SDS011;59104;44.738;20.612;2022-09-09T12:05:42;6.32;;;4.57;;
71312;SDS011;59104;44.738;20.612;2022-09-09T12:08:11;6.10;;;4.55;;
71312;SDS011;59104;44.738;20.612;2022-09-09T12:10:40;12.18;;;6.03;;
71312;SDS011;59104;44.738;20.612;2022-09-09T12:15:50;6.97;;;4.90;;
71312;SDS011;59104;44.738;20.612;2022-09-09T12:18:24;6.93;;;5.00;;
71312;SDS011;59104;44.738;20.612;2022-09-09T12:25:57;7.30;;;5.20;;
71312;SDS011;59104;44.738;20.612;2022-09-09T12:33:16;7.72;;;5.45;;
71312;SDS011;59104;44.738;20.612;2022-09-09T12:35:42;7.60;;;5.40;;
71312;SDS011;59104;44.738;20.612;2022-09-09T12:38:10;9.35;;;5.45;;
71312;SDS011;59104;44.738;20.612;2022-09-09T12:40:38;7.63;;;4.57;;
71312;SDS011;59104;44.738;20.612;2022-09-09T12:43:18;6.65;;;5.20;;
71312;SDS011;59104;44.738;20.612;2022-09-09T12:45:44;8.40;;;5.82;;
71312;SDS011;59104;44.738;20.612;2022-09-09T12:48:10;5.90;;;4.60;;
71312;SDS011;59104;44.738;20.612;2022-09-09T12:50:50;5.47;;;4.43;;
71312;SDS011;59104;44.738;20.612;2022-09-09T12:55:49;8.30;;;5.07;;
71312;SDS011;59104;44.738;20.612;2022-09-09T12:58:15;8.73;;;5.00;;
71312;SDS011;59104;44.738;20.612;2022-09-09T13:00:48;6.43;;;5.15;;
71312;SDS011;59104;44.738;20.612;2022-09-09T13:03:19;5.22;;;4.50;;
71312;SDS011;59104;44.738;20.612;2022-09-09T13:05:49;6.30;;;4.83;;
71312;SDS011;59104;44.738;20.612;2022-09-09T13:08:15;4.80;;;4.03;;
71312;SDS011;59104;44.738;20.612;2022-09-09T13:10:57;4.50;;;3.90;;
71312;SDS011;59104;44.738;20.612;2022-09-09T13:13:26;7.00;;;4.47;;
71312;SDS011;59104;44.738;20.612;2022-09-09T13:15:55;5.00;;;3.63;;
71312;SDS011;59104;44.738;20.612;2022-09-09T13:18:22;4.05;;;3.53;;
71312;SDS011;59104;44.738;20.612;2022-09-09T13:20:48;6.57;;;4.78;;
71312;SDS011;59104;44.738;20.612;2022-09-09T13:23:14;7.22;;;4.70;;
71312;SDS011;59104;44.738;20.612;2022-09-09T13:25:40;8.02;;;4.68;;
71312;SDS011;59104;44.738;20.612;2022-09-09T13:28:18;5.82;;;4.22;;
71312;SDS011;59104;44.738;20.612;2022-09-09T13:30:54;5.38;;;3.65;;
71312;SDS011;59104;44.738;20.612;2022-09-09T13:33:22;6.40;;;4.15;;
71312;SDS011;59104;44.738;20.612;2022-09-09T13:35:53;8.18;;;4.38;;
71312;SDS011;59104;44.738;20.612;2022-09-09T13:38:19;8.23;;;5.13;;
71312;SDS011;59104;44.738;20.612;2022-09-09T13:41:18;10.15;;;5.18;;
71312;SDS011;59104;44.738;20.612;2022-09-09T13:43:42;9.38;;;5.60;;
71312;SDS011;59104;44.738;20.612;2022-09-09T13:48:56;8.00;;;5.78;;
71312;SDS011;59104;44.738;20.612;2022-09-09T13:52:08;9.65;;;5.38;;
71312;SDS011;59104;44.738;20.612;2022-09-09T13:54:08;5.95;;;4.03;;
71312;SDS011;59104;44.738;20.612;2022-09-09T13:56:36;5.55;;;3.90;;
71312;SDS011;59104;44.738;20.612;2022-09-09T13:59:02;6.25;;;4.47;;
71312;SDS011;59104;44.738;20.612;2022-09-09T14:01:28;5.97;;;4.50;;
71312;SDS011;59104;44.738;20.612;2022-09-09T14:03:55;6.95;;;4.88;;
71312;SDS011;59104;44.738;20.612;2022-09-09T14:06:21;11.20;;;5.75;;
71312;SDS011;59104;44.738;20.612;2022-09-09T14:08:47;7.03;;;4.68;;
71312;SDS011;59104;44.738;20.612;2022-09-09T14:11:13;7.82;;;4.53;;
71312;SDS011;59104;44.738;20.612;2022-09-09T14:13:38;6.90;;;4.38;;
71312;SDS011;59104;44.738;20.612;2022-09-09T14:16:04;5.85;;;3.78;;
71312;SDS011;59104;44.738;20.612;2022-09-09T14:18:29;6.38;;;4.43;;
71312;SDS011;59104;44.738;20.612;2022-09-09T14:20:55;5.32;;;3.97;;
71312;SDS011;59104;44.738;20.612;2022-09-09T14:23:20;5.95;;;4.20;;
71312;SDS011;59104;44.738;20.612;2022-09-09T14:25:47;4.80;;;3.72;;
71312;SDS011;59104;44.738;20.612;2022-09-09T14:28:14;7.03;;;3.63;;
71312;SDS011;59104;44.738;20.612;2022-09-09T14:30:40;6.03;;;3.63;;
71312;SDS011;59104;44.738;20.612;2022-09-09T14:33:06;8.30;;;3.38;;
71312;SDS011;59104;44.738;20.612;2022-09-09T14:35:32;5.90;;;3.38;;
71312;SDS011;59104;44.738;20.612;2022-09-09T14:37:58;6.43;;;3.47;;
71312;SDS011;59104;44.738;20.612;2022-09-09T14:40:24;4.15;;;3.50;;
71312;SDS011;59104;44.738;20.612;2022-09-09T14:42:49;7.40;;;2.83;;
71312;SDS011;59104;44.738;20.612;2022-09-09T14:45:14;3.33;;;2.60;;
71312;SDS011;59104;44.738;20.612;2022-09-09T14:47:40;4.10;;;3.00;;
71312;SDS011;59104;44.738;20.612;2022-09-09T14:50:05;4.57;;;3.17;;
71312;SDS011;59104;44.738;20.612;2022-09-09T14:52:31;6.95;;;3.20;;
71312;SDS011;59104;44.738;20.612;2022-09-09T14:54:56;2.70;;;2.30;;
71312;SDS011;59104;44.738;20.612;2022-09-09T14:57:22;5.15;;;3.15;;
71312;SDS011;59104;44.738;20.612;2022-09-09T14:59:47;6.68;;;3.22;;
71312;SDS011;59104;44.738;20.612;2022-09-09T15:02:14;4.10;;;2.38;;
71312;SDS011;59104;44.738;20.612;2022-09-09T15:04:39;4.63;;;3.28;;
71312;SDS011;59104;44.738;20.612;2022-09-09T15:07:05;6.18;;;3.40;;
71312;SDS011;59104;44.738;20.612;2022-09-09T15:09:32;4.75;;;2.85;;
71312;SDS011;59104;44.738;20.612;2022-09-09T15:11:57;5.22;;;2.95;;
71312;SDS011;59104;44.738;20.612;2022-09-09T15:14:23;4.60;;;3.43;;
71312;SDS011;59104;44.738;20.612;2022-09-09T15:16:48;4.07;;;3.40;;
71312;SDS011;59104;44.738;20.612;2022-09-09T15:19:14;8.03;;;3.40;;
71312;SDS011;59104;44.738;20.612;2022-09-09T15:21:39;6.07;;;4.13;;
71312;SDS011;59104;44.738;20.612;2022-09-09T15:24:05;6.23;;;4.00;;
71312;SDS011;59104;44.738;20.612;2022-09-09T15:26:32;5.35;;;4.05;;
71312;SDS011;59104;44.738;20.612;2022-09-09T15:28:58;5.72;;;3.30;;
71312;SDS011;59104;44.738;20.612;2022-09-09T15:31:26;5.97;;;3.58;;
71312;SDS011;59104;44.738;20.612;2022-09-09T15:33:59;6.00;;;3.80;;
71312;SDS011;59104;44.738;20.612;2022-09-09T15:36:28;6.55;;;3.45;;
71312;SDS011;59104;44.738;20.612;2022-09-09T15:38:54;6.10;;;3.47;;
71312;SDS011;59104;44.738;20.612;2022-09-09T15:41:21;5.47;;;3.65;;
71312;SDS011;59104;44.738;20.612;2022-09-09T15:43:50;4.57;;;3.25;;
71312;SDS011;59104;44.738;20.612;2022-09-09T15:48:41;4.97;;;3.73;;
71312;SDS011;59104;44.738;20.612;2022-09-09T15:51:07;3.78;;;3.42;;
71312;SDS011;59104;44.738;20.612;2022-09-09T15:53:34;5.43;;;4.18;;
71312;SDS011;59104;44.738;20.612;2022-09-09T15:56:00;4.80;;;3.78;;
71312;SDS011;59104;44.738;20.612;2022-09-09T15:58:25;5.15;;;3.60;;
71312;SDS011;59104;44.738;20.612;2022-09-09T16:00:51;5.60;;;3.63;;
71312;SDS011;59104;44.738;20.612;2022-09-09T16:03:16;5.45;;;3.60;;
71312;SDS011;59104;44.738;20.612;2022-09-09T16:05:42;4.68;;;3.60;;
71312;SDS011;59104;44.738;20.612;2022-09-09T16:08:08;5.50;;;3.78;;
71312;SDS011;59104;44.738;20.612;2022-09-09T16:10:33;8.83;;;3.70;;
71312;SDS011;59104;44.738;20.612;2022-09-09T16:12:59;4.30;;;3.73;;
71312;SDS011;59104;44.738;20.612;2022-09-09T16:15:24;6.25;;;4.53;;
71312;SDS011;59104;44.738;20.612;2022-09-09T16:17:52;8.77;;;4.60;;
71312;SDS011;59104;44.738;20.612;2022-09-09T16:20:18;7.00;;;3.75;;
71312;SDS011;59104;44.738;20.612;2022-09-09T16:22:44;5.70;;;4.43;;
71312;SDS011;59104;44.738;20.612;2022-09-09T16:25:09;7.60;;;3.97;;
71312;SDS011;59104;44.738;20.612;2022-09-09T16:27:35;7.88;;;3.90;;
71312;SDS011;59104;44.738;20.612;2022-09-09T16:30:00;5.72;;;4.20;;
71312;SDS011;59104;44.738;20.612;2022-09-09T16:32:25;5.93;;;4.10;;
71312;SDS011;59104;44.738;20.612;2022-09-09T16:34:52;9.55;;;4.70;;
71312;SDS011;59104;44.738;20.612;2022-09-09T16:37:17;7.70;;;5.28;;
71312;SDS011;59104;44.738;20.612;2022-09-09T16:39:44;7.45;;;5.47;;
71312;SDS011;59104;44.738;20.612;2022-09-09T16:42:10;8.10;;;5.82;;
71312;SDS011;59104;44.738;20.612;2022-09-09T16:44:35;6.43;;;4.55;;
71312;SDS011;59104;44.738;20.612;2022-09-09T16:47:01;4.40;;;4.00;;
71312;SDS011;59104;44.738;20.612;2022-09-09T16:49:26;5.28;;;4.07;;
71312;SDS011;59104;44.738;20.612;2022-09-09T16:51:53;5.45;;;4.38;;
71312;SDS011;59104;44.738;20.612;2022-09-09T16:54:19;7.15;;;4.63;;
71312;SDS011;59104;44.738;20.612;2022-09-09T16:56:46;7.32;;;4.40;;
71312;SDS011;59104;44.738;20.612;2022-09-09T16:59:13;6.25;;;4.47;;